createdAt,value
2019-02-21T00:00:00.791Z,101548.44
2019-02-21T00:02:32.515Z,101547.15
2019-02-21T00:05:02.717Z,101552.36
2019-02-21T00:07:33.315Z,101550.53
2019-02-21T00:10:03.418Z,101554.52
2019-02-21T00:12:33.810Z,101556.30
2019-02-21T00:15:04.248Z,101554.46
2019-02-21T00:17:35.824Z,101561.47
2019-02-21T00:20:06.474Z,101554.89
2019-02-21T00:22:36.562Z,101559.36
2019-02-21T00:25:06.672Z,101568.08
2019-02-21T00:27:36.804Z,101564.11
2019-02-21T00:30:07.151Z,101570.95
2019-02-21T00:32:37.243Z,101570.41
2019-02-21T00:35:07.572Z,101574.44
2019-02-21T00:37:38.948Z,101572.27
2019-02-21T00:40:09.129Z,101578.42
2019-02-21T00:42:39.223Z,101576.09
2019-02-21T00:45:09.471Z,101580.11
2019-02-21T00:47:39.558Z,101579.13
2019-02-21T00:50:09.654Z,101574.84
2019-02-21T00:52:39.759Z,101571.77
2019-02-21T00:55:09.912Z,101577.48
2019-02-21T00:57:40.165Z,101582.27
2019-02-21T01:00:11.822Z,101572.39
2019-02-21T01:02:42.100Z,101574.16
2019-02-21T01:05:13.281Z,101579.87
2019-02-21T01:07:43.382Z,101576.05
2019-02-21T01:10:13.557Z,101581.20
2019-02-21T01:12:43.653Z,101578.09
2019-02-21T01:15:13.783Z,101584.72
2019-02-21T01:17:43.962Z,101586.64
2019-02-21T01:20:14.079Z,101589.28
2019-02-21T01:22:44.200Z,101592.91
2019-02-21T01:25:14.300Z,101598.14
2019-02-21T01:27:44.380Z,101599.31
2019-02-21T01:30:14.690Z,101596.10
2019-02-21T01:32:44.792Z,101601.16
2019-02-21T01:35:14.933Z,101599.54
2019-02-21T01:37:45.030Z,101596.03
2019-02-21T01:40:15.154Z,101596.97
2019-02-21T01:42:45.918Z,101594.34
2019-02-21T01:45:16.053Z,101593.05
2019-02-21T01:47:46.711Z,101592.21
2019-02-21T01:50:16.812Z,101592.77
2019-02-21T01:52:47.026Z,101600.72
2019-02-21T01:55:17.169Z,101597.58
2019-02-21T01:57:47.275Z,101589.64
2019-02-21T02:00:17.527Z,101589.59
2019-02-21T02:02:47.693Z,101587.36
2019-02-21T02:05:17.891Z,101586.15
2019-02-21T02:07:47.997Z,101585.30
2019-02-21T02:10:19.219Z,101586.15
2019-02-21T02:12:49.326Z,101587.04
2019-02-21T02:15:19.474Z,101585.26
2019-02-21T02:17:49.611Z,101585.72
2019-02-21T02:20:19.728Z,101577.78
2019-02-21T02:22:49.839Z,101579.95
2019-02-21T02:25:19.975Z,101580.05
2019-02-21T02:27:50.076Z,101577.92
2019-02-21T02:30:20.255Z,101574.41
2019-02-21T02:32:50.365Z,101577.42
2019-02-21T02:35:20.511Z,101583.16
2019-02-21T02:37:50.618Z,101580.42
2019-02-21T02:40:20.750Z,101586.72
2019-02-21T02:42:50.837Z,101582.50
2019-02-21T02:45:21.008Z,101588.22
2019-02-21T02:47:51.115Z,101587.38
2019-02-21T02:50:21.362Z,101579.48
2019-02-21T02:52:51.454Z,101577.25
2019-02-21T02:55:21.564Z,101579.88
2019-02-21T02:57:51.731Z,101581.56
2019-02-21T03:00:21.927Z,101582.52
2019-02-21T03:02:52.014Z,101578.09
2019-02-21T03:05:22.132Z,101578.12
2019-02-21T03:07:52.253Z,101584.62
2019-02-21T03:10:22.544Z,101586.02
2019-02-21T03:12:52.886Z,101579.60
2019-02-21T03:15:23.018Z,101590.59
2019-02-21T03:17:53.139Z,101583.18
2019-02-21T03:20:23.271Z,101585.39
2019-02-21T03:22:53.434Z,101586.78
2019-02-21T03:25:23.588Z,101587.67
2019-02-21T03:27:53.699Z,101589.78
2019-02-21T03:30:23.820Z,101587.54
2019-02-21T03:32:53.941Z,101585.33
2019-02-21T03:35:24.124Z,101583.14
2019-02-21T03:37:54.257Z,101583.45
2019-02-21T03:40:25.366Z,101581.23
2019-02-21T03:42:55.472Z,101583.09
2019-02-21T03:45:27.431Z,101591.89
2019-02-21T03:47:57.540Z,101597.13
2019-02-21T03:50:27.654Z,101587.52
2019-02-21T03:52:57.774Z,101603.94
2019-02-21T03:55:27.902Z,101602.17
2019-02-21T03:57:58.024Z,101616.70
2019-02-21T04:00:28.142Z,101589.00
2019-02-21T04:02:58.250Z,101581.14
2019-02-21T04:05:28.391Z,101580.66
2019-02-21T04:07:58.522Z,101571.41
2019-02-21T04:10:28.626Z,101564.84
2019-02-21T04:12:58.719Z,101571.01
2019-02-21T04:15:28.935Z,101562.22
2019-02-21T04:17:59.033Z,101553.44
2019-02-21T04:20:29.173Z,101554.34
2019-02-21T04:22:59.275Z,101549.91
2019-02-21T04:25:29.419Z,101546.88
2019-02-21T04:27:59.541Z,101560.09
2019-02-21T04:30:29.643Z,101556.54
2019-02-21T04:32:59.766Z,101551.72
2019-02-21T04:35:29.863Z,101550.44
2019-02-21T04:37:59.972Z,101556.64
2019-02-21T04:40:30.089Z,101550.91
2019-02-21T04:43:00.191Z,101548.27
2019-02-21T04:45:30.398Z,101539.91
2019-02-21T04:48:00.507Z,101543.01
2019-02-21T04:50:30.695Z,101546.48
2019-02-21T04:53:00.839Z,101557.93
2019-02-21T04:55:30.987Z,101565.87
2019-02-21T04:58:01.093Z,101564.11
2019-02-21T05:00:31.228Z,101567.64
2019-02-21T05:03:01.353Z,101565.47
2019-02-21T05:05:31.764Z,101560.19
2019-02-21T05:08:01.878Z,101565.02
2019-02-21T05:10:31.999Z,101559.75
2019-02-21T05:13:02.128Z,101555.77
2019-02-21T05:15:32.364Z,101548.78
2019-02-21T05:18:02.467Z,101555.69
2019-02-21T05:20:32.587Z,101561.81
2019-02-21T05:23:02.700Z,101556.52
2019-02-21T05:25:32.848Z,101579.81
2019-02-21T05:28:25.726Z,101587.69
2019-02-21T05:30:59.041Z,101581.55
2019-02-21T05:33:47.263Z,101579.37
2019-02-21T05:36:51.822Z,101588.19
2019-02-21T05:39:46.740Z,101592.56
2019-02-21T05:42:34.601Z,101593.38
2019-02-21T05:45:41.867Z,101589.44
2019-02-21T05:48:30.954Z,101576.27
2019-02-21T05:51:09.939Z,101566.14
2019-02-21T05:53:57.764Z,101573.69
2019-02-21T05:56:46.903Z,101570.65
2019-02-21T05:59:45.139Z,101574.12
2019-02-21T06:02:33.179Z,101577.69
2019-02-21T06:05:12.672Z,101572.80
2019-02-21T06:08:07.786Z,101571.03
2019-02-21T06:10:55.472Z,101561.81
2019-02-21T06:13:51.599Z,101560.88
2019-02-21T06:16:55.911Z,101557.88
2019-02-21T06:19:36.918Z,101568.38
2019-02-21T06:22:24.742Z,101568.81
2019-02-21T06:24:59.918Z,101571.02
2019-02-21T06:27:37.993Z,101577.59
2019-02-21T06:30:18.488Z,101572.73
2019-02-21T06:32:48.608Z,101575.78
2019-02-21T06:35:18.711Z,101579.68
2019-02-21T06:37:48.830Z,101580.17
2019-02-21T06:40:18.942Z,101576.64
2019-02-21T06:42:49.084Z,101578.39
2019-02-21T06:45:19.182Z,101587.14
2019-02-21T06:47:49.286Z,101588.87
2019-02-21T06:50:26.360Z,101598.95
2019-02-21T06:52:51.217Z,101608.30
2019-02-21T06:55:21.329Z,101602.55
2019-02-21T06:57:51.429Z,101608.23
2019-02-21T07:00:21.599Z,101619.22
2019-02-21T07:02:54.208Z,101624.56
2019-02-21T07:05:23.642Z,101609.20
2019-02-21T07:07:53.747Z,101607.00
2019-02-21T07:10:23.877Z,101614.47
2019-02-21T07:12:53.987Z,101620.20
2019-02-21T07:15:24.110Z,101608.33
2019-02-21T07:17:54.329Z,101610.55
2019-02-21T07:20:24.471Z,101609.19
2019-02-21T07:22:54.583Z,101610.45
2019-02-21T07:25:38.210Z,101617.55
2019-02-21T07:28:11.858Z,101612.31
2019-02-21T07:30:40.149Z,101623.31
2019-02-21T07:33:10.264Z,101622.81
2019-02-21T07:35:40.390Z,101636.90
2019-02-21T07:38:10.501Z,101628.08
2019-02-21T07:40:40.645Z,101637.33
2019-02-21T07:43:12.696Z,101622.81
2019-02-21T07:45:42.571Z,101634.23
2019-02-21T07:48:12.678Z,101635.54
2019-02-21T07:50:42.814Z,101642.59
2019-02-21T07:53:12.932Z,101637.75
2019-02-21T07:55:43.219Z,101640.36
2019-02-21T07:58:13.619Z,101635.95
2019-02-21T08:00:43.755Z,101641.20
2019-02-21T08:03:13.872Z,101642.41
2019-02-21T08:05:44.101Z,101662.65
2019-02-21T08:08:14.307Z,101654.33
2019-02-21T08:10:44.441Z,101655.25
2019-02-21T08:13:14.523Z,101660.52
2019-02-21T08:15:44.701Z,101659.19
2019-02-21T08:18:14.985Z,101665.36
2019-02-21T08:20:45.098Z,101671.94
2019-02-21T08:23:15.223Z,101679.00
2019-02-21T08:25:45.494Z,101685.59
2019-02-21T08:28:15.888Z,101679.44
2019-02-21T08:30:46.013Z,101689.14
2019-02-21T08:33:22.267Z,101684.30
2019-02-21T08:35:54.196Z,101686.95
2019-02-21T08:38:24.514Z,101676.80
2019-02-21T08:40:57.090Z,101679.87
2019-02-21T08:43:26.793Z,101672.82
2019-02-21T08:45:57.649Z,101682.52
2019-02-21T08:48:27.932Z,101682.50
2019-02-21T08:50:58.342Z,101686.39
2019-02-21T08:53:28.462Z,101698.31
2019-02-21T08:55:58.584Z,101700.47
2019-02-21T08:58:28.763Z,101702.63
2019-02-21T09:00:59.165Z,101707.06
2019-02-21T09:03:29.415Z,101704.83
2019-02-21T09:05:59.569Z,101703.94
2019-02-21T09:08:33.443Z,101716.69
2019-02-21T09:11:03.922Z,101708.34
2019-02-21T09:13:33.772Z,101700.00
2019-02-21T09:16:04.042Z,101713.16
2019-02-21T09:18:34.177Z,101710.94
2019-02-21T09:21:05.432Z,101721.92
2019-02-21T09:23:35.523Z,101726.73
2019-02-21T09:26:05.738Z,101732.02
2019-02-21T09:28:35.916Z,101740.38
2019-02-21T09:31:06.140Z,101742.17
2019-02-21T09:33:37.249Z,101750.52
2019-02-21T09:36:07.647Z,101748.77
2019-02-21T09:38:37.767Z,101745.66
2019-02-21T09:41:07.959Z,101746.08
2019-02-21T09:43:38.231Z,101752.68
2019-02-21T09:46:08.467Z,101754.39
2019-02-21T09:48:38.898Z,101759.20
2019-02-21T09:51:08.992Z,101757.45
2019-02-21T09:53:39.106Z,101767.55
2019-02-21T09:56:09.239Z,101760.49
2019-02-21T09:58:39.438Z,101770.59
2019-02-21T10:01:09.551Z,101773.20
2019-02-21T10:03:39.661Z,101775.41
2019-02-21T10:06:09.792Z,101776.23
2019-02-21T10:08:39.896Z,101771.38
2019-02-21T10:11:11.430Z,101770.92
2019-02-21T10:13:41.862Z,101341.28
2019-02-21T10:16:12.018Z,101767.88
2019-02-21T10:18:42.090Z,101768.75
2019-02-21T10:21:12.295Z,101775.77
2019-02-21T10:23:42.402Z,101787.14
2019-02-21T10:26:12.524Z,101788.56
2019-02-21T10:28:45.054Z,101784.98
2019-02-21T10:31:14.514Z,101779.57
2019-02-21T10:33:47.301Z,101774.28
2019-02-21T10:36:16.864Z,101774.74
2019-02-21T10:38:47.016Z,101776.03
2019-02-21T10:41:17.141Z,101780.90
2019-02-21T10:43:47.258Z,101771.66
2019-02-21T10:46:17.392Z,101777.78
2019-02-21T10:48:47.525Z,101790.64
2019-02-21T10:51:17.643Z,101794.20
2019-02-21T10:53:47.724Z,101790.28
2019-02-21T10:56:18.092Z,101796.00
2019-02-21T10:58:48.342Z,101791.64
2019-02-21T11:01:18.503Z,101781.92
2019-02-21T11:03:48.608Z,101773.13
2019-02-21T11:06:18.769Z,101781.03
2019-02-21T11:08:48.882Z,101780.13
2019-02-21T11:11:19.015Z,101788.06
2019-02-21T11:13:49.128Z,101785.86
2019-02-21T11:16:19.244Z,101788.50
2019-02-21T11:18:49.368Z,101797.68
2019-02-21T11:21:19.505Z,101795.04
2019-02-21T11:23:49.624Z,101806.40
2019-02-21T11:26:19.848Z,101798.06
2019-02-21T11:28:49.966Z,101796.30
2019-02-21T11:31:20.086Z,101802.44
2019-02-21T11:33:50.225Z,101808.67
2019-02-21T11:36:21.335Z,101806.89
2019-02-21T11:38:51.469Z,101816.56
2019-02-21T11:41:21.583Z,101812.13
2019-02-21T11:43:51.705Z,101824.02
2019-02-21T11:46:21.804Z,101817.39
2019-02-21T11:48:53.036Z,101817.82
2019-02-21T11:51:23.137Z,101825.70
2019-02-21T11:53:53.263Z,101830.09
2019-02-21T11:56:23.409Z,101834.89
2019-02-21T11:58:53.534Z,101834.06
2019-02-21T12:01:24.306Z,101833.09
2019-02-21T12:03:54.406Z,101840.11
2019-02-21T12:06:24.504Z,101838.86
2019-02-21T12:08:54.723Z,101835.30
2019-02-21T12:11:24.834Z,101827.41
2019-02-21T12:13:55.387Z,101830.03
2019-02-21T12:16:25.641Z,101830.48
2019-02-21T12:18:55.992Z,101846.80
2019-02-21T12:21:26.103Z,101861.31
2019-02-21T12:23:56.218Z,101856.92
2019-02-21T12:26:26.420Z,101851.64
2019-02-21T12:28:56.559Z,101855.98
2019-02-21T12:31:26.663Z,101853.78
2019-02-21T12:33:56.855Z,101857.39
2019-02-21T12:36:26.952Z,101859.16
2019-02-21T12:38:57.066Z,101866.22
2019-02-21T12:41:27.166Z,101853.92
2019-02-21T12:43:57.297Z,101860.06
2019-02-21T12:46:27.478Z,101849.92
2019-02-21T12:48:57.597Z,101857.42
2019-02-21T12:51:27.780Z,101857.82
2019-02-21T12:53:57.914Z,101849.05
2019-02-21T12:56:28.016Z,101840.28
2019-02-21T12:58:58.160Z,101838.89
2019-02-21T13:01:28.411Z,101837.13
2019-02-21T13:03:58.504Z,101858.16
2019-02-21T13:06:28.611Z,101863.97
2019-02-21T13:08:58.707Z,101873.23
2019-02-21T13:11:28.814Z,101878.43
2019-02-21T13:13:58.915Z,101886.84
2019-02-21T13:16:29.003Z,101897.44
2019-02-21T13:18:59.137Z,101898.30
2019-02-21T13:21:29.242Z,101899.62
2019-02-21T13:24:00.339Z,101904.48
2019-02-21T13:26:30.460Z,101904.08
2019-02-21T13:29:00.576Z,101908.06
2019-02-21T13:31:30.673Z,101911.55
2019-02-21T13:34:00.809Z,101915.89
2019-02-21T13:36:30.902Z,101917.70
2019-02-21T13:39:01.028Z,101918.61
2019-02-21T13:41:32.776Z,101920.37
2019-02-21T13:44:03.046Z,101925.67
2019-02-21T13:46:37.317Z,101928.73
2019-02-21T13:49:05.386Z,101916.41
2019-02-21T13:51:35.567Z,101923.02
2019-02-21T13:54:05.689Z,101921.70
2019-02-21T13:56:36.916Z,101923.50
2019-02-21T13:59:07.083Z,101929.63
2019-02-21T14:01:37.176Z,101935.34
2019-02-21T14:04:07.296Z,101929.19
2019-02-21T14:06:37.407Z,101926.55
2019-02-21T14:09:08.706Z,101930.05
2019-02-21T14:11:38.883Z,101935.34
2019-02-21T14:14:09.023Z,101935.34
2019-02-21T14:16:46.731Z,101936.22
2019-02-21T14:19:10.970Z,101941.05
2019-02-21T14:21:43.615Z,101959.97
2019-02-21T14:24:13.067Z,101963.04
2019-02-21T14:26:43.221Z,101960.84
2019-02-21T14:29:13.342Z,101962.61
2019-02-21T14:31:44.500Z,101968.80
2019-02-21T14:34:14.638Z,101978.02
2019-02-21T14:36:44.732Z,101996.49
2019-02-21T14:39:14.961Z,101994.29
2019-02-21T14:41:45.106Z,101999.14
2019-02-21T14:44:15.222Z,102006.17
2019-02-21T14:46:45.324Z,102014.09
2019-02-21T14:49:15.448Z,102019.38
2019-02-21T14:51:45.591Z,102026.41
2019-02-21T14:54:16.602Z,102035.20
2019-02-21T14:56:46.829Z,102036.53
2019-02-21T14:59:19.772Z,102038.73
2019-02-21T15:01:48.777Z,102052.38
2019-02-21T15:04:18.875Z,102055.47
2019-02-21T15:06:48.996Z,102068.21
2019-02-21T15:09:19.106Z,102080.09
2019-02-21T15:11:49.221Z,102080.98
2019-02-21T15:14:19.409Z,102089.33
2019-02-21T15:16:49.554Z,102094.17
2019-02-21T15:19:19.681Z,102101.21
2019-02-21T15:21:49.828Z,102108.25
2019-02-21T15:24:19.939Z,102114.44
2019-02-21T15:26:50.093Z,102123.65
2019-02-21T15:29:20.200Z,102126.75
2019-02-21T15:31:50.411Z,102136.88
2019-02-21T15:34:20.767Z,102132.03
2019-02-21T15:36:50.893Z,102117.49
2019-02-21T15:39:21.010Z,102109.56
2019-02-21T15:41:51.128Z,102119.25
2019-02-21T15:44:21.682Z,102118.39
2019-02-21T15:46:51.837Z,102121.03
2019-02-21T15:49:21.972Z,102121.45
2019-02-21T15:51:52.191Z,102121.02
2019-02-21T15:54:22.306Z,102111.77
2019-02-21T15:56:53.006Z,102113.98
2019-02-21T15:59:23.704Z,102118.83
2019-02-21T16:01:53.845Z,102128.50
2019-02-21T16:04:23.999Z,102133.34
2019-02-21T16:06:54.145Z,102137.73
2019-02-21T16:09:25.397Z,102146.55
2019-02-21T16:11:55.802Z,102146.56
2019-02-21T16:14:30.355Z,102149.19
2019-02-21T16:17:00.887Z,102148.75
2019-02-21T16:19:31.002Z,102150.97
2019-02-21T16:22:01.139Z,102164.16
2019-02-21T16:24:31.250Z,102172.52
2019-02-21T16:27:01.386Z,102167.69
2019-02-21T16:29:31.509Z,102178.25
2019-02-21T16:32:01.988Z,102181.34
2019-02-21T16:34:33.094Z,102198.02
2019-02-21T16:37:03.269Z,102218.69
2019-02-21T16:39:33.389Z,102218.25
2019-02-21T16:42:03.590Z,102225.29
2019-02-21T16:44:33.683Z,102233.20
2019-02-21T16:47:05.825Z,102253.87
2019-02-21T16:49:37.093Z,102250.80
2019-02-21T16:52:07.354Z,102257.83
2019-02-21T16:54:37.547Z,102253.87
2019-02-21T16:57:07.688Z,102259.15
2019-02-21T16:59:39.029Z,102274.55
2019-02-21T17:02:08.548Z,102273.66
2019-02-21T17:04:38.684Z,102285.98
2019-02-21T17:07:15.171Z,102293.45
2019-02-21T17:09:40.601Z,102296.97
2019-02-21T17:12:10.738Z,102304.00
2019-02-21T17:14:41.914Z,102308.84
2019-02-21T17:17:12.051Z,102313.23
2019-02-21T17:19:42.228Z,102302.67
2019-02-21T17:22:13.252Z,102309.70
2019-02-21T17:24:43.330Z,102307.01
2019-02-21T17:27:13.454Z,102318.44
2019-02-21T17:29:43.582Z,102321.93
2019-02-21T17:32:13.716Z,102327.20
2019-02-21T17:34:43.796Z,102337.30
2019-02-21T17:37:24.385Z,102346.53
2019-02-21T17:39:45.759Z,102347.83
2019-02-21T17:42:15.885Z,102360.09
2019-02-21T17:44:47.110Z,102359.61
2019-02-21T17:47:17.238Z,102365.37
2019-02-21T17:49:47.376Z,102357.40
2019-02-21T17:52:17.719Z,102362.65
2019-02-21T17:54:47.836Z,102380.17
2019-02-21T17:57:17.971Z,102387.18
2019-02-21T17:59:48.147Z,102386.25
2019-02-21T18:02:18.297Z,102396.75
2019-02-21T18:04:48.555Z,102399.31
2019-02-21T18:07:18.682Z,102411.58
2019-02-21T18:09:48.873Z,102409.34
2019-02-21T18:12:19.968Z,102425.55
2019-02-21T18:14:50.208Z,102436.07
2019-02-21T18:17:20.397Z,102439.04
2019-02-21T18:19:50.652Z,102439.41
2019-02-21T18:22:20.849Z,102445.12
2019-02-21T18:24:50.967Z,102445.59
2019-02-21T18:27:21.218Z,102451.30
2019-02-21T18:29:51.358Z,102318.80
2019-02-21T18:32:21.558Z,102473.19
2019-02-21T18:34:51.756Z,102473.19
2019-02-21T18:37:21.899Z,102473.58
2019-02-21T18:39:52.065Z,102492.88
2019-02-21T18:42:22.226Z,102502.14
2019-02-21T18:44:52.360Z,102504.73
2019-02-21T18:47:22.504Z,102522.79
2019-02-21T18:49:53.864Z,102525.37
2019-02-21T18:52:24.129Z,102525.78
2019-02-21T18:54:55.360Z,102537.72
2019-02-21T18:57:25.512Z,102535.11
2019-02-21T18:59:55.638Z,102541.66
2019-02-21T19:02:25.886Z,102554.45
2019-02-21T19:04:56.019Z,102548.24
2019-02-21T19:07:26.149Z,102554.34
2019-02-21T19:09:56.317Z,102565.37
2019-02-21T19:12:26.468Z,102569.22
2019-02-21T19:14:56.743Z,102581.05
2019-02-21T19:17:26.965Z,102576.19
2019-02-21T19:19:57.138Z,102575.75
2019-02-21T19:22:27.406Z,102581.50
2019-02-21T19:24:58.545Z,102584.52
2019-02-21T19:27:36.859Z,102595.98
2019-02-21T19:30:00.839Z,102606.55
2019-02-21T19:32:31.728Z,102610.53
2019-02-21T19:35:02.154Z,102617.64
2019-02-21T19:37:33.371Z,102615.77
2019-02-21T19:40:03.515Z,102614.94
2019-02-21T19:42:33.705Z,102626.34
2019-02-21T19:45:03.951Z,102628.52
2019-02-21T19:47:34.077Z,102625.92
2019-02-21T19:50:04.523Z,102631.55
2019-02-21T19:52:34.873Z,102634.29
2019-02-21T19:55:05.183Z,102651.31
2019-02-21T19:57:35.301Z,102649.96
2019-02-21T20:00:07.052Z,102648.13
2019-02-21T20:02:39.334Z,102661.36
2019-02-21T20:05:10.931Z,102656.80
2019-02-21T20:07:43.866Z,102645.34
2019-02-21T20:10:14.870Z,102654.17
2019-02-21T20:12:45.142Z,102662.48
2019-02-21T20:15:15.707Z,102675.33
2019-02-21T20:17:45.926Z,102674.20
2019-02-21T20:20:16.971Z,102686.02
2019-02-21T20:22:47.140Z,102679.33
2019-02-21T20:25:18.241Z,102676.98
2019-02-21T20:27:48.487Z,102693.23
2019-02-21T20:30:18.820Z,102700.17
2019-02-21T20:32:49.070Z,102713.32
2019-02-21T20:35:19.291Z,102719.42
2019-02-21T20:37:49.553Z,102726.48
2019-02-21T20:40:19.686Z,102731.28
2019-02-21T20:42:49.995Z,102733.94
2019-02-21T20:45:20.127Z,102742.55
2019-02-21T20:47:50.313Z,102753.08
2019-02-21T20:50:20.421Z,102761.84
2019-02-21T20:52:50.673Z,102766.50
2019-02-21T20:55:20.836Z,102770.62
2019-02-21T20:57:51.005Z,102772.40
2019-02-21T21:00:21.195Z,102781.45
2019-02-21T21:02:51.386Z,102779.70
2019-02-21T21:05:21.510Z,102786.63
2019-02-21T21:07:51.643Z,102797.36
2019-02-21T21:10:23.754Z,102808.76
2019-02-21T21:12:53.892Z,102810.82
2019-02-21T21:15:24.034Z,102820.45
2019-02-21T21:17:54.896Z,102825.99
2019-02-21T21:20:26.033Z,102824.80
2019-02-21T21:22:56.280Z,102831.25
2019-02-21T21:25:26.450Z,102838.89
2019-02-21T21:27:56.787Z,102845.38
2019-02-21T21:30:26.946Z,102855.19
2019-02-21T21:32:57.066Z,102856.41
2019-02-21T21:35:27.212Z,102850.66
2019-02-21T21:37:58.834Z,102854.52
2019-02-21T21:40:28.963Z,102860.14
2019-02-21T21:43:00.234Z,102866.73
2019-02-21T21:45:30.351Z,102871.53
2019-02-21T21:48:00.664Z,102883.39
2019-02-21T21:50:30.914Z,102885.01
2019-02-21T21:53:01.295Z,102894.33
2019-02-21T21:55:31.417Z,102898.41
2019-02-21T21:58:01.601Z,102894.01
2019-02-21T22:00:31.789Z,102897.78
2019-02-21T22:03:01.912Z,102898.50
2019-02-21T22:05:32.075Z,102913.44
2019-02-21T22:08:02.183Z,102917.60
2019-02-21T22:10:32.286Z,102922.39
2019-02-21T22:13:02.417Z,102922.25
2019-02-21T22:15:32.524Z,102931.23
2019-02-21T22:18:02.659Z,102942.20
2019-02-21T22:20:32.781Z,102949.34
2019-02-21T22:23:02.892Z,102955.94
2019-02-21T22:25:33.025Z,102959.03
2019-02-21T22:28:03.201Z,102961.30
2019-02-21T22:30:33.314Z,102970.34
2019-02-21T22:33:03.467Z,102975.28
2019-02-21T22:35:33.565Z,102980.64
2019-02-21T22:38:03.700Z,102974.86
2019-02-21T22:40:34.292Z,102985.05
2019-02-21T22:43:04.489Z,102988.87
2019-02-21T22:45:34.592Z,102993.28
2019-02-21T22:48:04.731Z,102993.66
2019-02-21T22:50:34.874Z,102997.64
2019-02-21T22:53:05.030Z,103000.27
2019-02-21T22:55:35.142Z,103006.91
2019-02-21T22:58:05.280Z,103013.05
2019-02-21T23:00:58.671Z,103009.46
2019-02-21T23:03:43.154Z,103010.66
2019-02-21T23:06:27.819Z,103022.48
2019-02-21T23:08:57.950Z,103024.30
2019-02-21T23:11:28.062Z,103033.61
2019-02-21T23:13:58.236Z,103041.68
2019-02-21T23:16:28.365Z,103048.75
2019-02-21T23:18:58.524Z,103051.80
2019-02-21T23:21:28.632Z,103057.17
2019-02-21T23:24:01.245Z,103063.31
2019-02-21T23:26:31.352Z,103069.06
2019-02-21T23:29:01.474Z,103070.96
2019-02-21T23:31:31.737Z,103074.98
2019-02-21T23:34:02.185Z,103075.44
2019-02-21T23:36:32.283Z,103096.00
2019-02-21T23:39:02.478Z,103089.89
2019-02-21T23:41:34.193Z,103092.52
2019-02-21T23:44:05.394Z,103089.89
2019-02-21T23:46:35.539Z,103095.22
2019-02-21T23:49:05.677Z,103098.70
2019-02-21T23:51:35.818Z,103105.27
2019-02-21T23:54:05.954Z,103116.67
2019-02-21T23:56:36.069Z,103121.46
2019-02-21T23:59:06.265Z,103128.03
